Time;durP1;ratioP1;P1;durP2;ratioP2;P2;SDS_P1;SDS_P2;PMS_P1;PMS_P2;Temp;Humidity;BMP_temperature;BMP_pressure;BME280_temperature;BME280_humidity;BME280_pressure;Samples;Min_cycle;Max_cycle;Signal;HPM_P1;HPM_P2
2021/06/18 00:01:31;;;;;;;9.90;9.13;;;;;;;;;;5113773;28;20497;-72
2021/06/18 00:03:57;;;;;;;9.80;9.00;;;;;;;;;;5105475;28;20428;-73
2021/06/18 00:06:23;;;;;;;11.27;10.20;;;;;;;;;;5095498;28;20794;-71
2021/06/18 00:08:49;;;;;;;10.53;9.50;;;;;;;;;;5096978;28;20424;-73
2021/06/18 00:11:15;;;;;;;10.73;9.63;;;;;;;;;;5096560;28;20488;-73
2021/06/18 00:13:41;;;;;;;10.93;9.57;;;;;;;;;;5096674;28;20414;-72
2021/06/18 00:16:07;;;;;;;11.00;10.10;;;;;;;;;;5096855;28;20943;-71
2021/06/18 00:18:34;;;;;;;10.13;9.30;;;;;;;;;;5096862;28;20413;-71
2021/06/18 00:21:00;;;;;;;10.00;9.30;;;;;;;;;;5096908;28;20493;-71
2021/06/18 00:23:26;;;;;;;11.00;10.17;;;;;;;;;;5096384;28;20409;-72
2021/06/18 00:25:52;;;;;;;11.00;10.00;;;;;;;;;;5096690;28;20416;-70
2021/06/18 00:28:18;;;;;;;9.30;8.70;;;;;;;;;;5098480;28;20921;-70
2021/06/18 00:30:44;;;;;;;10.67;9.77;;;;;;;;;;5096790;28;20456;-70
2021/06/18 00:33:10;;;;;;;10.00;9.10;;;;;;;;;;5096251;28;20857;-69
2021/06/18 00:35:37;;;;;;;11.17;10.27;;;;;;;;;;5096508;28;20496;-70
2021/06/18 00:38:03;;;;;;;10.47;9.67;;;;;;;;;;5096531;28;20420;-70
2021/06/18 00:40:29;;;;;;;10.70;9.90;;;;;;;;;;5096385;28;20413;-70
2021/06/18 00:42:55;;;;;;;10.90;9.50;;;;;;;;;;5096156;28;20440;-71
2021/06/18 00:45:21;;;;;;;11.53;10.43;;;;;;;;;;5099995;28;20859;-70
2021/06/18 00:47:49;;;;;;;10.30;9.50;;;;;;;;;;5099985;27;20426;-72
2021/06/18 00:50:16;;;;;;;10.33;9.37;;;;;;;;;;5100456;28;20487;-70
2021/06/18 00:52:42;;;;;;;10.80;9.80;;;;;;;;;;5110774;28;20440;-71
2021/06/18 00:55:09;;;;;;;10.93;9.93;;;;;;;;;;5116237;28;20963;-72
2021/06/18 00:57:35;;;;;;;10.40;9.50;;;;;;;;;;5116043;27;20412;-72
2021/06/18 01:00:01;;;;;;;10.40;9.70;;;;;;;;;;5116162;28;20420;-71
2021/06/18 01:02:27;;;;;;;11.10;10.20;;;;;;;;;;5108627;28;20432;-72
2021/06/18 01:04:53;;;;;;;11.57;10.47;;;;;;;;;;5116224;28;20409;-72
2021/06/18 01:07:26;;;;;;;10.77;9.87;;;;;;;;;;5116078;28;20428;-71
2021/06/18 01:10:08;;;;;;;10.43;9.60;;;;;;;;;;5116096;27;20460;-72
2021/06/18 01:12:39;;;;;;;10.80;9.70;;;;;;;;;;5110426;28;20449;-71
2021/06/18 01:15:22;;;;;;;11.40;10.43;;;;;;;;;;5115816;28;20499;-72
2021/06/18 01:17:50;;;;;;;10.07;9.03;;;;;;;;;;5115509;28;20408;-71
2021/06/18 01:20:35;;;;;;;10.90;10.00;;;;;;;;;;5115611;28;20416;-73
2021/06/18 01:23:02;;;;;;;9.90;9.13;;;;;;;;;;5115435;28;20427;-71
2021/06/18 01:25:41;;;;;;;10.93;10.20;;;;;;;;;;5115588;28;20409;-73
2021/06/18 01:28:26;;;;;;;12.50;11.50;;;;;;;;;;5110547;28;20411;-71
2021/06/18 01:30:52;;;;;;;11.63;10.63;;;;;;;;;;5115591;28;20464;-72
2021/06/18 01:33:20;;;;;;;12.20;11.27;;;;;;;;;;5108238;28;20763;-73
2021/06/18 01:35:49;;;;;;;10.83;10.07;;;;;;;;;;5115368;28;20461;-72
2021/06/18 01:38:15;;;;;;;13.70;11.67;;;;;;;;;;5115416;27;20419;-69
2021/06/18 01:40:42;;;;;;;11.60;10.73;;;;;;;;;;5115652;28;20423;-71
2021/06/18 01:43:09;;;;;;;11.97;11.07;;;;;;;;;;5115484;28;20433;-71
2021/06/18 01:45:36;;;;;;;11.20;10.40;;;;;;;;;;5115496;28;20476;-70
2021/06/18 01:48:04;;;;;;;12.50;11.40;;;;;;;;;;5115390;28;20525;-71
2021/06/18 01:50:31;;;;;;;12.17;11.20;;;;;;;;;;5115300;28;20452;-71
2021/06/18 01:53:09;;;;;;;11.63;10.70;;;;;;;;;;5110022;28;20433;-71
2021/06/18 01:55:35;;;;;;;12.60;11.60;;;;;;;;;;5094823;28;20410;-71
2021/06/18 01:58:03;;;;;;;12.33;11.13;;;;;;;;;;5094584;28;20420;-70
2021/06/18 02:00:30;;;;;;;12.30;11.20;;;;;;;;;;5094685;28;20883;-71
2021/06/18 02:02:58;;;;;;;11.80;10.80;;;;;;;;;;5094714;28;20433;-71
2021/06/18 02:05:24;;;;;;;12.43;11.47;;;;;;;;;;5094731;28;20893;-71
2021/06/18 02:07:52;;;;;;;11.73;10.73;;;;;;;;;;5094502;28;20445;-73
2021/06/18 02:10:19;;;;;;;12.83;11.63;;;;;;;;;;5094212;28;20457;-71
2021/06/18 02:12:46;;;;;;;11.87;11.07;;;;;;;;;;5094199;28;20429;-73
2021/06/18 02:15:12;;;;;;;12.90;11.83;;;;;;;;;;5094566;28;20913;-71
2021/06/18 02:17:40;;;;;;;12.87;11.97;;;;;;;;;;5094338;28;20497;-73
2021/06/18 02:20:07;;;;;;;12.67;11.57;;;;;;;;;;5094318;28;20459;-70
2021/06/18 02:22:34;;;;;;;13.97;12.93;;;;;;;;;;5094523;28;20910;-72
2021/06/18 02:25:01;;;;;;;14.20;13.17;;;;;;;;;;5094146;28;20463;-71
2021/06/18 02:27:28;;;;;;;14.33;13.20;;;;;;;;;;5094294;28;20819;-70
2021/06/18 02:29:54;;;;;;;15.17;13.73;;;;;;;;;;5100451;28;20654;-72
2021/06/18 02:32:20;;;;;;;15.17;13.87;;;;;;;;;;5094256;28;20430;-72
2021/06/18 02:34:46;;;;;;;15.73;14.33;;;;;;;;;;5094110;28;20412;-73
2021/06/18 02:37:12;;;;;;;15.37;14.17;;;;;;;;;;5094419;28;20459;-72
2021/06/18 02:39:39;;;;;;;16.87;15.27;;;;;;;;;;5093797;28;20413;-73
2021/06/18 02:42:06;;;;;;;17.43;15.60;;;;;;;;;;5094049;28;20422;-71
2021/06/18 02:44:32;;;;;;;16.53;15.03;;;;;;;;;;5093718;28;20405;-72
2021/06/18 02:47:04;;;;;;;16.03;14.63;;;;;;;;;;5102949;28;20439;-72
2021/06/18 02:49:51;;;;;;;14.90;13.53;;;;;;;;;;5093610;28;20410;-71
2021/06/18 02:52:27;;;;;;;17.60;15.67;;;;;;;;;;5106942;28;20460;-71
2021/06/18 02:55:03;;;;;;;10.57;9.60;;;;;;;;;;5112658;28;20923;-72
2021/06/18 02:57:30;;;;;;;16.93;15.53;;;;;;;;;;5113910;28;20400;-71
2021/06/18 03:00:13;;;;;;;17.47;15.93;;;;;;;;;;5114258;28;20416;-72
2021/06/18 03:02:44;;;;;;;15.70;14.20;;;;;;;;;;5113790;28;20466;-73
2021/06/18 03:05:11;;;;;;;15.83;14.60;;;;;;;;;;5113977;28;20460;-72
2021/06/18 03:07:37;;;;;;;18.77;17.00;;;;;;;;;;5113515;28;20436;-72
2021/06/18 03:10:07;;;;;;;17.60;16.30;;;;;;;;;;5114107;28;20796;-72
2021/06/18 03:12:36;;;;;;;19.07;17.43;;;;;;;;;;5105293;28;20933;-71
2021/06/18 03:15:03;;;;;;;17.23;15.50;;;;;;;;;;5092013;28;20455;-70
2021/06/18 03:17:30;;;;;;;20.70;18.80;;;;;;;;;;5100506;28;20420;-70
2021/06/18 03:19:59;;;;;;;20.50;18.70;;;;;;;;;;5113918;28;20420;-73
2021/06/18 03:22:26;;;;;;;18.93;17.30;;;;;;;;;;5114037;28;20489;-69
2021/06/18 03:24:55;;;;;;;17.63;16.07;;;;;;;;;;5112721;28;20490;-73
2021/06/18 03:27:22;;;;;;;19.27;17.37;;;;;;;;;;5113636;28;20739;-72
2021/06/18 03:29:49;;;;;;;19.87;18.23;;;;;;;;;;5099387;28;20458;-70
2021/06/18 03:32:15;;;;;;;20.40;18.70;;;;;;;;;;5093176;28;20433;-72
2021/06/18 03:34:42;;;;;;;21.00;19.10;;;;;;;;;;5093149;28;20736;-71
2021/06/18 03:37:08;;;;;;;20.27;18.60;;;;;;;;;;5091959;28;20428;-73
2021/06/18 03:39:34;;;;;;;20.63;18.80;;;;;;;;;;5093048;28;20416;-71
2021/06/18 03:42:01;;;;;;;22.83;20.63;;;;;;;;;;5093184;28;20434;-72
2021/06/18 03:44:27;;;;;;;20.17;18.30;;;;;;;;;;5093089;28;20417;-72
2021/06/18 03:46:54;;;;;;;19.40;17.83;;;;;;;;;;5101159;28;20406;-71
2021/06/18 03:49:22;;;;;;;21.73;19.53;;;;;;;;;;5092883;28;20959;-72
2021/06/18 03:51:49;;;;;;;20.03;18.20;;;;;;;;;;5102222;28;20517;-72
2021/06/18 03:54:15;;;;;;;19.47;17.77;;;;;;;;;;5113154;28;20459;-72
2021/06/18 03:56:47;;;;;;;19.13;17.40;;;;;;;;;;5113268;28;20412;-70
2021/06/18 03:59:14;;;;;;;19.03;17.20;;;;;;;;;;5113066;28;20436;-72
2021/06/18 04:01:41;;;;;;;19.50;17.70;;;;;;;;;;5113265;28;20786;-70
2021/06/18 04:04:08;;;;;;;18.60;17.17;;;;;;;;;;5113258;28;20459;-72
2021/06/18 04:06:34;;;;;;;18.97;17.23;;;;;;;;;;5113048;28;20433;-71
2021/06/18 04:09:01;;;;;;;18.80;17.30;;;;;;;;;;5112866;28;20419;-71
2021/06/18 04:11:27;;;;;;;18.97;17.53;;;;;;;;;;5113394;28;20460;-74
2021/06/18 04:13:53;;;;;;;20.73;18.60;;;;;;;;;;5093414;28;20504;-73
2021/06/18 04:16:19;;;;;;;20.17;18.27;;;;;;;;;;5093000;28;20459;-73
2021/06/18 04:18:46;;;;;;;19.03;17.33;;;;;;;;;;5092682;28;20831;-73
2021/06/18 04:21:15;;;;;;;17.80;16.30;;;;;;;;;;5092857;28;20441;-71
2021/06/18 04:23:41;;;;;;;19.80;18.30;;;;;;;;;;5092457;28;20829;-72
2021/06/18 04:26:07;;;;;;;19.17;17.60;;;;;;;;;;5092894;28;20437;-72
2021/06/18 04:28:33;;;;;;;17.13;15.73;;;;;;;;;;5096473;28;20554;-73
2021/06/18 04:30:59;;;;;;;16.70;15.20;;;;;;;;;;5093205;28;21012;-74
2021/06/18 04:33:25;;;;;;;18.00;16.60;;;;;;;;;;5092542;28;20489;-72
2021/06/18 04:35:51;;;;;;;20.13;17.33;;;;;;;;;;5095350;28;20443;-71
2021/06/18 04:38:17;;;;;;;17.30;15.70;;;;;;;;;;5096038;28;20409;-73
2021/06/18 04:40:43;;;;;;;17.57;15.90;;;;;;;;;;5096681;28;20767;-72
2021/06/18 04:43:09;;;;;;;17.20;15.60;;;;;;;;;;5095895;28;20437;-72
2021/06/18 04:45:35;;;;;;;17.80;16.10;;;;;;;;;;5101906;28;20412;-74
2021/06/18 04:48:01;;;;;;;17.40;15.90;;;;;;;;;;5098054;28;20905;-71
2021/06/18 04:50:27;;;;;;;17.67;16.27;;;;;;;;;;5096314;28;20458;-71
2021/06/18 04:52:53;;;;;;;16.13;14.73;;;;;;;;;;5114019;28;20428;-70
2021/06/18 04:55:19;;;;;;;17.63;16.13;;;;;;;;;;5116531;28;20514;-72
2021/06/18 04:57:46;;;;;;;15.27;13.97;;;;;;;;;;5116101;28;20428;-73
2021/06/18 05:00:13;;;;;;;14.23;13.13;;;;;;;;;;5116533;28;20408;-72
2021/06/18 05:02:39;;;;;;;15.90;14.60;;;;;;;;;;5116574;28;20780;-72
2021/06/18 05:05:05;;;;;;;16.47;15.07;;;;;;;;;;5116248;28;20413;-71
2021/06/18 05:07:31;;;;;;;15.20;14.10;;;;;;;;;;5115776;28;20898;-72
2021/06/18 05:09:57;;;;;;;17.03;15.73;;;;;;;;;;5116302;28;20489;-71
2021/06/18 05:12:23;;;;;;;16.23;14.77;;;;;;;;;;5109057;28;20421;-70
2021/06/18 05:14:49;;;;;;;16.00;14.73;;;;;;;;;;5095958;28;20409;-71
2021/06/18 05:17:15;;;;;;;17.30;15.63;;;;;;;;;;5095943;28;21105;-73
2021/06/18 05:19:42;;;;;;;17.10;15.40;;;;;;;;;;5095592;28;20406;-72
2021/06/18 05:22:08;;;;;;;20.60;18.77;;;;;;;;;;5095610;28;20434;-72
2021/06/18 05:24:34;;;;;;;16.00;14.80;;;;;;;;;;5095571;28;20510;-71
2021/06/18 05:27:00;;;;;;;14.33;13.13;;;;;;;;;;5095592;28;20902;-73
2021/06/18 05:29:26;;;;;;;16.30;14.90;;;;;;;;;;5099087;28;20413;-71
2021/06/18 05:31:52;;;;;;;14.90;13.80;;;;;;;;;;5101248;28;20425;-74
2021/06/18 05:34:18;;;;;;;13.87;12.77;;;;;;;;;;5115493;28;20404;-73
2021/06/18 05:36:45;;;;;;;14.00;12.90;;;;;;;;;;5115509;28;20566;-72
2021/06/18 05:39:11;;;;;;;13.70;12.70;;;;;;;;;;5115495;28;20450;-74
2021/06/18 05:41:37;;;;;;;12.43;11.53;;;;;;;;;;5110042;28;20822;-73
2021/06/18 05:44:03;;;;;;;14.17;12.93;;;;;;;;;;5094855;28;20409;-72
2021/06/18 05:46:29;;;;;;;13.93;12.80;;;;;;;;;;5102425;28;20425;-72
2021/06/18 05:48:56;;;;;;;14.57;13.57;;;;;;;;;;5094969;28;20413;-72
2021/06/18 05:51:22;;;;;;;13.20;12.17;;;;;;;;;;5095912;28;20461;-72
2021/06/18 05:53:48;;;;;;;13.40;12.30;;;;;;;;;;5094625;28;20413;-72
2021/06/18 05:56:14;;;;;;;15.07;13.60;;;;;;;;;;5095050;28;20449;-73
2021/06/18 05:58:40;;;;;;;15.00;13.70;;;;;;;;;;5094810;28;20402;-72
2021/06/18 06:01:06;;;;;;;12.90;12.00;;;;;;;;;;5094893;28;20409;-71
2021/06/18 06:03:33;;;;;;;14.47;13.07;;;;;;;;;;5094436;28;20409;-70
2021/06/18 06:06:00;;;;;;;15.83;14.20;;;;;;;;;;5094425;28;20419;-72
2021/06/18 06:08:26;;;;;;;14.10;13.00;;;;;;;;;;5094436;28;20510;-75
2021/06/18 06:10:52;;;;;;;13.67;12.67;;;;;;;;;;5094574;28;20493;-72
2021/06/18 06:13:18;;;;;;;14.23;13.03;;;;;;;;;;5094310;28;20402;-71
2021/06/18 06:15:46;;;;;;;13.73;12.63;;;;;;;;;;5094553;28;20774;-72
2021/06/18 06:18:12;;;;;;;14.80;13.27;;;;;;;;;;5093985;28;20437;-73
2021/06/18 06:20:38;;;;;;;14.13;12.87;;;;;;;;;;5094613;28;20409;-74
2021/06/18 06:23:04;;;;;;;14.20;12.90;;;;;;;;;;5094190;28;20429;-73
2021/06/18 06:25:30;;;;;;;13.63;12.40;;;;;;;;;;5094618;28;20474;-72
2021/06/18 06:27:56;;;;;;;14.17;12.87;;;;;;;;;;5094247;28;20420;-72
2021/06/18 06:30:22;;;;;;;13.00;11.90;;;;;;;;;;5098098;28;20544;-73
2021/06/18 06:32:48;;;;;;;12.77;11.77;;;;;;;;;;5095831;28;20451;-72
2021/06/18 06:35:14;;;;;;;13.40;12.30;;;;;;;;;;5099940;27;20549;-73
2021/06/18 06:37:42;;;;;;;13.40;12.30;;;;;;;;;;5091213;28;20543;-73
2021/06/18 06:40:08;;;;;;;12.53;11.60;;;;;;;;;;5096038;28;21254;-73
2021/06/18 06:42:34;;;;;;;12.27;11.33;;;;;;;;;;5094550;28;20458;-72
2021/06/18 06:45:01;;;;;;;13.50;11.63;;;;;;;;;;5102081;28;20518;-71
2021/06/18 06:47:27;;;;;;;12.67;11.40;;;;;;;;;;5093935;27;20456;-73
2021/06/18 06:49:53;;;;;;;13.10;12.00;;;;;;;;;;5090437;28;20468;-73
2021/06/18 06:52:19;;;;;;;12.47;11.33;;;;;;;;;;5103384;28;20432;-74
2021/06/18 06:54:45;;;;;;;13.00;11.90;;;;;;;;;;5090229;28;20923;-73
2021/06/18 06:57:12;;;;;;;13.37;11.97;;;;;;;;;;5090075;28;20444;-72
2021/06/18 06:59:38;;;;;;;15.60;11.90;;;;;;;;;;5090072;28;20405;-73
2021/06/18 07:02:04;;;;;;;13.23;12.13;;;;;;;;;;5089799;28;20975;-73
2021/06/18 07:04:30;;;;;;;13.10;12.00;;;;;;;;;;5089855;28;20409;-73
2021/06/18 07:06:56;;;;;;;13.17;12.00;;;;;;;;;;5089834;28;20437;-73
2021/06/18 07:09:23;;;;;;;12.43;11.43;;;;;;;;;;5089871;28;20414;-73
2021/06/18 07:11:49;;;;;;;12.17;11.37;;;;;;;;;;5089871;28;20473;-72
2021/06/18 07:14:15;;;;;;;13.27;12.17;;;;;;;;;;5089390;28;20416;-73
2021/06/18 07:16:41;;;;;;;13.23;12.00;;;;;;;;;;5089526;28;20405;-70
2021/06/18 07:19:07;;;;;;;16.83;12.20;;;;;;;;;;5089345;28;20410;-75
2021/06/18 07:21:33;;;;;;;13.17;12.10;;;;;;;;;;5089618;28;20437;-71
2021/06/18 07:24:00;;;;;;;12.37;11.47;;;;;;;;;;5106928;27;20516;-70
2021/06/18 07:26:26;;;;;;;13.70;12.43;;;;;;;;;;5089423;28;20514;-73
2021/06/18 07:28:52;;;;;;;14.10;12.80;;;;;;;;;;5092200;28;20498;-71
2021/06/18 07:31:18;;;;;;;13.43;12.13;;;;;;;;;;5102487;28;20817;-71
2021/06/18 07:33:44;;;;;;;13.00;11.83;;;;;;;;;;5089368;28;20418;-72
2021/06/18 07:36:10;;;;;;;12.57;11.50;;;;;;;;;;5099371;28;20466;-72
2021/06/18 07:38:37;;;;;;;12.20;11.30;;;;;;;;;;5101259;28;20452;-72
2021/06/18 07:41:03;;;;;;;11.90;10.80;;;;;;;;;;5089127;28;20493;-73
2021/06/18 07:43:29;;;;;;;12.83;11.80;;;;;;;;;;5089059;28;20428;-73
2021/06/18 07:45:55;;;;;;;11.53;10.73;;;;;;;;;;5095742;28;20417;-73
2021/06/18 07:48:21;;;;;;;11.87;10.87;;;;;;;;;;5089071;28;20414;-73
2021/06/18 07:50:47;;;;;;;12.17;11.27;;;;;;;;;;5089673;28;21161;-74
2021/06/18 07:53:14;;;;;;;12.07;11.00;;;;;;;;;;5102669;28;20512;-71
2021/06/18 07:55:41;;;;;;;12.33;11.33;;;;;;;;;;5089108;28;20422;-73
2021/06/18 07:58:08;;;;;;;12.63;11.60;;;;;;;;;;5088865;28;20445;-71
2021/06/18 08:00:34;;;;;;;12.57;11.37;;;;;;;;;;5088978;28;20774;-71
2021/06/18 08:03:02;;;;;;;11.03;10.03;;;;;;;;;;5088926;28;20469;-74
2021/06/18 08:05:28;;;;;;;12.70;11.33;;;;;;;;;;5089029;28;20413;-74
2021/06/18 08:07:57;;;;;;;11.90;11.10;;;;;;;;;;5088949;28;20437;-71
2021/06/18 08:10:23;;;;;;;12.80;11.57;;;;;;;;;;5090697;28;20453;-71
2021/06/18 08:12:49;;;;;;;13.10;12.00;;;;;;;;;;5092700;28;20429;-71
2021/06/18 08:15:15;;;;;;;12.33;11.23;;;;;;;;;;5093054;28;20414;-72
2021/06/18 08:17:42;;;;;;;13.10;11.43;;;;;;;;;;5093171;28;20762;-74
2021/06/18 08:20:08;;;;;;;12.40;11.30;;;;;;;;;;5093055;28;20413;-72
2021/06/18 08:22:34;;;;;;;11.97;10.97;;;;;;;;;;5097967;28;20450;-76
2021/06/18 08:25:02;;;;;;;11.80;10.70;;;;;;;;;;5113025;28;20468;-71
2021/06/18 08:27:28;;;;;;;11.90;10.90;;;;;;;;;;5113066;28;20427;-74
2021/06/18 08:29:54;;;;;;;12.43;11.53;;;;;;;;;;5096778;28;20514;-73
2021/06/18 08:32:21;;;;;;;15.67;14.27;;;;;;;;;;5092678;28;20429;-71
2021/06/18 08:34:53;;;;;;;11.73;10.80;;;;;;;;;;5091753;28;20467;-75
2021/06/18 08:37:19;;;;;;;11.30;10.40;;;;;;;;;;5092692;28;20429;-73
2021/06/18 08:39:46;;;;;;;11.73;10.63;;;;;;;;;;5092394;28;20409;-74
2021/06/18 08:42:12;;;;;;;12.20;11.20;;;;;;;;;;5092282;28;20429;-73
2021/06/18 08:44:38;;;;;;;12.47;11.47;;;;;;;;;;5092173;28;20421;-72
2021/06/18 08:47:04;;;;;;;12.57;11.47;;;;;;;;;;5099758;28;20443;-74
2021/06/18 08:49:31;;;;;;;14.07;12.77;;;;;;;;;;5093663;28;20468;-71
2021/06/18 08:51:57;;;;;;;12.60;11.47;;;;;;;;;;5102616;28;20467;-72
2021/06/18 08:54:41;;;;;;;14.07;12.67;;;;;;;;;;5112262;28;20447;-73
2021/06/18 08:57:07;;;;;;;12.53;11.43;;;;;;;;;;5112548;28;20408;-71
2021/06/18 08:59:33;;;;;;;13.47;12.40;;;;;;;;;;5112409;27;20420;-73
2021/06/18 09:01:59;;;;;;;13.33;12.10;;;;;;;;;;5105753;28;20445;-74
2021/06/18 09:04:25;;;;;;;13.87;12.57;;;;;;;;;;5091763;28;20477;-74
2021/06/18 09:06:57;;;;;;;12.47;11.47;;;;;;;;;;5092051;28;20774;-73
2021/06/18 09:09:25;;;;;;;11.87;10.73;;;;;;;;;;5092058;28;20732;-74
2021/06/18 09:11:52;;;;;;;11.53;10.43;;;;;;;;;;5091828;28;20518;-72
2021/06/18 09:14:19;;;;;;;11.43;10.53;;;;;;;;;;5091758;28;20417;-73
2021/06/18 09:17:04;;;;;;;11.63;10.53;;;;;;;;;;5091973;28;20420;-74
2021/06/18 09:19:30;;;;;;;12.50;11.40;;;;;;;;;;5091624;28;20413;-71
2021/06/18 09:22:04;;;;;;;13.43;10.93;;;;;;;;;;5090301;28;20433;-72
2021/06/18 09:24:32;;;;;;;12.77;11.47;;;;;;;;;;5102762;28;20415;-71
2021/06/18 09:26:59;;;;;;;15.27;13.73;;;;;;;;;;5112048;28;20455;-72
2021/06/18 09:29:26;;;;;;;13.27;12.13;;;;;;;;;;5100250;28;20424;-72
2021/06/18 09:31:59;;;;;;;12.67;11.50;;;;;;;;;;5091803;28;20474;-74
2021/06/18 09:34:28;;;;;;;13.40;12.00;;;;;;;;;;5091397;28;20417;-74
2021/06/18 09:37:12;;;;;;;13.07;11.87;;;;;;;;;;5091381;28;20425;-71
2021/06/18 09:39:53;;;;;;;13.30;12.20;;;;;;;;;;5091412;28;20421;-74
2021/06/18 09:42:23;;;;;;;13.33;12.27;;;;;;;;;;5091167;28;20977;-71
2021/06/18 09:45:25;;;;;;;13.40;12.30;;;;;;;;;;5091324;28;20410;-73
2021/06/18 09:47:51;;;;;;;13.70;12.57;;;;;;;;;;5043419;28;20875;-71
2021/06/18 09:50:28;;;;;;;13.10;12.20;;;;;;;;;;5082553;28;20465;-74
2021/06/18 09:53:12;;;;;;;12.80;11.90;;;;;;;;;;5090763;28;20449;-72
2021/06/18 09:55:38;;;;;;;14.60;13.50;;;;;;;;;;5091585;28;20458;-72
2021/06/18 09:58:05;;;;;;;13.70;12.70;;;;;;;;;;5090894;28;20812;-72
2021/06/18 10:00:31;;;;;;;14.00;13.10;;;;;;;;;;5091080;28;20424;-72
2021/06/18 10:02:57;;;;;;;14.20;12.90;;;;;;;;;;5090965;28;20433;-74
2021/06/18 10:05:24;;;;;;;13.43;12.17;;;;;;;;;;5090864;28;20504;-72
2021/06/18 10:07:52;;;;;;;13.37;12.27;;;;;;;;;;5090684;28;20766;-76
2021/06/18 10:10:21;;;;;;;14.17;12.93;;;;;;;;;;5091222;28;20457;-73
2021/06/18 10:12:48;;;;;;;13.07;11.87;;;;;;;;;;5093981;28;20425;-73
2021/06/18 10:15:16;;;;;;;14.07;13.03;;;;;;;;;;5090902;28;20410;-72
2021/06/18 10:17:43;;;;;;;13.60;12.67;;;;;;;;;;5090504;28;20436;-74
2021/06/18 10:20:11;;;;;;;13.20;12.23;;;;;;;;;;5090938;28;20525;-73
2021/06/18 10:22:53;;;;;;;13.40;12.07;;;;;;;;;;5095816;28;20440;-74
2021/06/18 10:25:23;;;;;;;12.03;11.03;;;;;;;;;;5111011;27;20416;-74
2021/06/18 10:27:49;;;;;;;11.57;10.67;;;;;;;;;;5108482;28;20425;-75
2021/06/18 10:30:26;;;;;;;11.67;10.90;;;;;;;;;;5094836;28;20522;-70
2021/06/18 10:32:52;;;;;;;12.00;11.10;;;;;;;;;;5089813;28;20940;-72
2021/06/18 10:36:04;;;;;;;15.27;14.13;;;;;;;;;;5090484;28;20490;-72
2021/06/18 10:38:34;;;;;;;12.00;10.87;;;;;;;;;;5045233;28;20581;-73
2021/06/18 10:41:04;;;;;;;12.70;11.67;;;;;;;;;;5086418;28;20429;-72
2021/06/18 10:43:34;;;;;;;11.40;10.67;;;;;;;;;;5090591;28;20417;-75
2021/06/18 10:46:01;;;;;;;11.20;10.50;;;;;;;;;;5099020;28;20439;-72
2021/06/18 10:48:59;;;;;;;11.50;10.80;;;;;;;;;;5090047;28;20405;-74
2021/06/18 10:51:28;;;;;;;11.00;10.30;;;;;;;;;;5065960;28;20896;-74
2021/06/18 10:53:55;;;;;;;10.50;9.80;;;;;;;;;;5090478;28;20421;-74
2021/06/18 10:56:24;;;;;;;11.53;10.80;;;;;;;;;;5090127;28;20443;-72
2021/06/18 10:59:06;;;;;;;12.20;11.40;;;;;;;;;;5089755;28;20438;-75
2021/06/18 11:01:33;;;;;;;11.90;10.87;;;;;;;;;;5088438;28;20442;-75
2021/06/18 11:03:59;;;;;;;11.50;10.77;;;;;;;;;;5089660;28;20764;-75
2021/06/18 11:06:51;;;;;;;11.40;10.40;;;;;;;;;;5089810;28;20429;-71
2021/06/18 11:09:36;;;;;;;10.60;9.80;;;;;;;;;;5087748;28;20441;-72
2021/06/18 11:12:21;;;;;;;11.30;10.30;;;;;;;;;;5088256;28;20580;-76
2021/06/18 11:14:47;;;;;;;10.53;9.80;;;;;;;;;;5089412;28;20899;-76
2021/06/18 11:17:31;;;;;;;11.50;10.80;;;;;;;;;;5089479;28;20416;-74
2021/06/18 11:19:58;;;;;;;10.50;9.73;;;;;;;;;;5089651;28;20417;-75
2021/06/18 11:22:37;;;;;;;10.87;10.07;;;;;;;;;;5093497;28;20436;-73
2021/06/18 11:25:04;;;;;;;10.50;10.00;;;;;;;;;;5095478;28;20756;-72
2021/06/18 11:27:31;;;;;;;11.47;10.77;;;;;;;;;;5089418;28;20462;-73
2021/06/18 11:30:15;;;;;;;12.20;11.40;;;;;;;;;;5106371;28;20451;-73
2021/06/18 11:32:42;;;;;;;11.40;10.40;;;;;;;;;;5096382;28;20429;-72
2021/06/18 11:35:27;;;;;;;11.40;10.60;;;;;;;;;;5089466;28;20927;-70
2021/06/18 11:37:53;;;;;;;12.43;11.23;;;;;;;;;;5089490;28;20832;-72
2021/06/18 11:40:23;;;;;;;11.50;10.80;;;;;;;;;;5089482;28;20452;-75
2021/06/18 11:42:49;;;;;;;12.83;11.63;;;;;;;;;;5092773;28;20538;-76
2021/06/18 11:45:15;;;;;;;12.33;11.50;;;;;;;;;;5091250;28;20412;-76
2021/06/18 11:47:42;;;;;;;13.13;12.43;;;;;;;;;;5091303;28;20456;-76
2021/06/18 11:50:08;;;;;;;12.30;11.50;;;;;;;;;;5098661;28;20479;-76
2021/06/18 11:52:34;;;;;;;13.03;12.20;;;;;;;;;;5091027;28;20472;-75
2021/06/18 11:55:00;;;;;;;11.40;10.70;;;;;;;;;;5089191;28;20414;-75
2021/06/18 11:57:27;;;;;;;11.30;10.57;;;;;;;;;;5089374;28;20417;-75
2021/06/18 11:59:54;;;;;;;10.87;10.27;;;;;;;;;;5087529;28;20425;-76
2021/06/18 12:02:22;;;;;;;11.67;10.97;;;;;;;;;;5089097;28;20434;-77
2021/06/18 12:04:59;;;;;;;12.50;11.43;;;;;;;;;;5088681;28;20418;-75
2021/06/18 12:07:29;;;;;;;12.07;11.27;;;;;;;;;;5090163;28;20432;-74
2021/06/18 12:09:55;;;;;;;12.27;11.50;;;;;;;;;;5088865;28;20419;-74
2021/06/18 12:12:22;;;;;;;11.90;10.80;;;;;;;;;;5088887;28;20555;-76
2021/06/18 12:14:55;;;;;;;11.90;11.10;;;;;;;;;;5088549;28;20420;-74
2021/06/18 12:17:21;;;;;;;11.60;10.80;;;;;;;;;;5089080;28;20414;-74
2021/06/18 12:19:49;;;;;;;12.37;11.57;;;;;;;;;;5089104;28;20421;-74
2021/06/18 12:22:16;;;;;;;11.67;10.97;;;;;;;;;;5092096;28;20536;-75
2021/06/18 12:24:43;;;;;;;11.80;10.90;;;;;;;;;;5097329;28;20421;-75
2021/06/18 12:27:11;;;;;;;10.83;10.23;;;;;;;;;;5090457;28;20417;-75
2021/06/18 12:29:38;;;;;;;12.27;11.47;;;;;;;;;;5094850;28;20413;-76
2021/06/18 12:32:04;;;;;;;11.70;10.87;;;;;;;;;;5099320;28;20820;-77
2021/06/18 12:34:30;;;;;;;11.13;10.43;;;;;;;;;;5103821;28;20410;-75
2021/06/18 12:36:57;;;;;;;12.07;11.17;;;;;;;;;;5090246;28;20422;-74
2021/06/18 12:39:23;;;;;;;11.20;10.47;;;;;;;;;;5089552;28;20409;-75
2021/06/18 12:41:50;;;;;;;11.10;10.40;;;;;;;;;;5088717;28;20795;-76
2021/06/18 12:44:16;;;;;;;12.33;11.37;;;;;;;;;;5089561;28;20492;-75
2021/06/18 12:46:55;;;;;;;12.63;11.73;;;;;;;;;;5093101;28;20450;-74
2021/06/18 12:49:26;;;;;;;11.70;10.97;;;;;;;;;;5091317;28;20425;-76
2021/06/18 12:52:07;;;;;;;12.30;11.60;;;;;;;;;;5096241;28;20468;-75
2021/06/18 12:54:33;;;;;;;12.37;11.63;;;;;;;;;;5088870;28;20790;-75
2021/06/18 12:56:59;;;;;;;13.20;12.30;;;;;;;;;;5093740;28;20413;-76
2021/06/18 12:59:25;;;;;;;14.63;13.53;;;;;;;;;;5092334;28;20421;-75
2021/06/18 13:01:57;;;;;;;13.43;12.53;;;;;;;;;;5092310;28;20440;-75
2021/06/18 13:04:31;;;;;;;13.40;12.40;;;;;;;;;;5092418;28;20432;-75
2021/06/18 13:06:57;;;;;;;13.50;12.60;;;;;;;;;;5100773;28;20444;-75
2021/06/18 13:09:39;;;;;;;14.00;12.87;;;;;;;;;;5092024;28;20482;-76
2021/06/18 13:12:06;;;;;;;13.53;12.60;;;;;;;;;;5092167;28;20472;-76
2021/06/18 13:14:42;;;;;;;14.43;13.47;;;;;;;;;;5104010;28;20443;-75
2021/06/18 13:17:08;;;;;;;13.00;12.30;;;;;;;;;;5091889;27;20410;-74
2021/06/18 13:19:37;;;;;;;13.60;12.60;;;;;;;;;;5098513;28;20418;-75
2021/06/18 13:22:09;;;;;;;13.87;13.00;;;;;;;;;;5099112;28;20452;-75
2021/06/18 13:24:47;;;;;;;13.90;13.10;;;;;;;;;;5111813;28;20486;-75
2021/06/18 13:27:13;;;;;;;14.00;13.00;;;;;;;;;;5102546;28;20766;-75
2021/06/18 13:29:56;;;;;;;14.60;13.50;;;;;;;;;;5092826;28;20427;-75
2021/06/18 13:32:23;;;;;;;14.03;13.03;;;;;;;;;;5099897;28;20433;-75
2021/06/18 13:34:54;;;;;;;15.13;14.03;;;;;;;;;;5091547;28;20828;-75
2021/06/18 13:37:21;;;;;;;14.43;13.07;;;;;;;;;;5095329;28;20416;-75
2021/06/18 13:40:00;;;;;;;14.43;13.57;;;;;;;;;;5095952;28;20785;-75
2021/06/18 13:42:26;;;;;;;15.13;14.10;;;;;;;;;;5111006;28;20456;-75
2021/06/18 13:44:52;;;;;;;14.83;13.73;;;;;;;;;;5111511;28;20483;-75
2021/06/18 13:47:18;;;;;;;14.40;13.33;;;;;;;;;;5097789;28;20429;-74
2021/06/18 13:49:44;;;;;;;14.23;13.23;;;;;;;;;;5091281;28;20417;-76
2021/06/18 13:52:10;;;;;;;15.60;14.27;;;;;;;;;;5091104;28;20587;-75
2021/06/18 13:54:36;;;;;;;15.30;14.10;;;;;;;;;;5090838;28;20414;-75
2021/06/18 13:57:02;;;;;;;14.90;13.87;;;;;;;;;;5091133;28;20406;-75
2021/06/18 13:59:28;;;;;;;13.73;12.90;;;;;;;;;;5091141;28;20413;-75
2021/06/18 14:01:55;;;;;;;14.40;13.33;;;;;;;;;;5091138;28;20494;-74
2021/06/18 14:04:21;;;;;;;14.67;13.63;;;;;;;;;;5091289;28;20453;-74
2021/06/18 14:06:47;;;;;;;13.47;12.57;;;;;;;;;;5090369;28;20498;-76
2021/06/18 14:09:13;;;;;;;15.50;14.00;;;;;;;;;;5090547;28;20421;-75
2021/06/18 14:11:39;;;;;;;14.00;13.10;;;;;;;;;;5090900;28;20531;-74
2021/06/18 14:14:06;;;;;;;16.33;15.17;;;;;;;;;;5090823;28;20417;-75
2021/06/18 14:16:40;;;;;;;14.40;13.40;;;;;;;;;;5090726;28;20417;-75
2021/06/18 14:19:07;;;;;;;15.97;14.60;;;;;;;;;;5099865;28;20412;-75
2021/06/18 14:21:33;;;;;;;15.20;14.20;;;;;;;;;;5110670;28;20432;-75
2021/06/18 14:23:59;;;;;;;16.43;15.17;;;;;;;;;;5109348;27;20432;-75
2021/06/18 14:26:25;;;;;;;15.53;14.50;;;;;;;;;;5090498;28;20423;-75